createdAt,value
2018-12-23T00:05:46.499Z,3
2018-12-23T00:15:53.578Z,4
2018-12-23T00:26:00.223Z,4
2018-12-23T00:36:08.289Z,4
2018-12-23T00:46:17.390Z,3
2018-12-23T00:56:26.368Z,5
2018-12-23T01:06:34.413Z,5
2018-12-23T01:16:41.228Z,4
2018-12-23T01:27:00.932Z,4
2018-12-23T01:37:12.099Z,5
2018-12-23T01:47:20.237Z,5
2018-12-23T01:57:25.258Z,6
2018-12-23T02:07:31.877Z,6
2018-12-23T02:17:37.908Z,6
2018-12-23T02:27:44.510Z,6
2018-12-23T02:37:52.161Z,6
2018-12-23T02:42:07.206Z,5
2018-12-23T02:52:15.372Z,6
2018-12-23T03:02:22.805Z,5
2018-12-23T03:06:39.827Z,4
2018-12-23T03:16:47.756Z,4
2018-12-23T03:26:56.459Z,5
2018-12-23T03:37:02.099Z,6
2018-12-23T03:47:10.731Z,6
2018-12-23T03:57:17.809Z,5
2018-12-23T04:07:24.869Z,5
2018-12-23T04:17:32.661Z,5
2018-12-23T04:27:40.056Z,6
2018-12-23T04:37:47.655Z,5
2018-12-23T04:47:57.419Z,4
2018-12-23T04:58:06.796Z,6
2018-12-23T05:04:22.079Z,6
2018-12-23T05:14:29.479Z,6
2018-12-23T05:24:37.524Z,5
2018-12-23T05:34:44.223Z,8
2018-12-23T05:44:52.766Z,6
2018-12-23T05:54:59.908Z,5
2018-12-23T06:05:07.838Z,6
2018-12-23T06:15:15.076Z,6
2018-12-23T06:25:25.861Z,6
2018-12-23T06:35:34.378Z,6
2018-12-23T06:37:48.740Z,7
2018-12-23T06:47:54.456Z,7
2018-12-23T06:58:02.339Z,6
2018-12-23T07:08:09.826Z,5
2018-12-23T07:18:16.350Z,7
2018-12-23T07:28:23.551Z,6
2018-12-23T07:38:30.817Z,11
2018-12-23T07:48:37.413Z,4
2018-12-23T07:58:43.134Z,6
2018-12-23T08:08:49.117Z,5
2018-12-23T08:18:55.563Z,5
2018-12-23T08:26:13.600Z,5
2018-12-23T08:36:21.521Z,7
2018-12-23T08:46:28.709Z,11
2018-12-23T08:56:35.870Z,6
2018-12-23T09:03:54.187Z,6
2018-12-23T09:14:02.430Z,6
2018-12-23T09:24:09.691Z,8
2018-12-23T09:34:17.820Z,7
2018-12-23T09:44:26.955Z,6
2018-12-23T09:54:34.820Z,6
2018-12-23T10:04:43.726Z,6
2018-12-23T10:14:51.207Z,7
2018-12-23T10:24:58.853Z,6
2018-12-23T10:35:06.918Z,6
2018-12-23T10:45:12.116Z,4
2018-12-23T10:55:20.921Z,5
2018-12-23T11:05:29.312Z,6
2018-12-23T11:15:39.951Z,5
2018-12-23T11:25:46.823Z,4
2018-12-23T11:35:54.160Z,7
2018-12-23T11:46:03.091Z,6
2018-12-23T11:56:10.494Z,8
2018-12-23T12:06:17.598Z,5
2018-12-23T12:16:27.976Z,10
2018-12-23T12:26:34.724Z,8
2018-12-23T12:36:43.513Z,5
2018-12-23T12:46:55.794Z,7
2018-12-23T12:56:59.870Z,5
2018-12-23T13:07:07.204Z,6
2018-12-23T13:17:15.982Z,6
2018-12-23T13:27:22.112Z,4
2018-12-23T13:37:29.206Z,4
2018-12-23T13:47:38.092Z,7
2018-12-23T13:57:44.529Z,9
2018-12-23T14:07:53.651Z,7
2018-12-23T14:18:02.116Z,5
2018-12-23T14:28:10.953Z,8
2018-12-23T14:38:19.645Z,7
2018-12-23T14:48:25.028Z,8
2018-12-23T14:58:32.537Z,18
2018-12-23T15:08:41.639Z,14
2018-12-23T15:18:48.955Z,15
2018-12-23T15:28:56.329Z,16
2018-12-23T15:39:02.984Z,19
2018-12-23T15:49:11.965Z,21
2018-12-23T15:59:21.908Z,10
2018-12-23T16:09:30.539Z,11
2018-12-23T16:10:58.730Z,10
2018-12-23T16:21:03.075Z,8
2018-12-23T16:27:34.371Z,10
2018-12-23T16:37:38.655Z,11
2018-12-23T16:47:46.349Z,10
2018-12-23T16:50:01.736Z,16
2018-12-23T17:00:07.868Z,7
2018-12-23T17:10:15.253Z,10
2018-12-23T17:20:24.189Z,6
2018-12-23T17:30:30.653Z,5
2018-12-23T17:40:37.414Z,4
2018-12-23T17:50:43.574Z,7
2018-12-23T18:00:52.495Z,6
2018-12-23T18:11:01.539Z,8
2018-12-23T18:21:10.305Z,4
2018-12-23T18:31:22.042Z,5
2018-12-23T18:41:27.664Z,3
2018-12-23T18:51:33.392Z,5
2018-12-23T19:01:41.230Z,4
2018-12-23T19:11:49.251Z,3
2018-12-23T19:21:58.003Z,4
2018-12-23T19:32:06.031Z,2
2018-12-23T19:41:25.376Z,3
2018-12-23T19:51:31.760Z,3
2018-12-23T20:01:37.712Z,5
2018-12-23T20:11:44.746Z,3
2018-12-23T20:21:52.697Z,5
2018-12-23T20:32:00.500Z,3
2018-12-23T20:42:09.591Z,3
2018-12-23T20:52:14.773Z,5
2018-12-23T21:02:21.228Z,5
2018-12-23T21:12:28.603Z,4
2018-12-23T21:22:35.226Z,5
2018-12-23T21:25:49.259Z,3
2018-12-23T21:35:57.452Z,5
2018-12-23T21:46:04.736Z,3
2018-12-23T21:56:16.576Z,3
2018-12-23T22:06:23.863Z,3
2018-12-23T22:16:31.243Z,4
2018-12-23T22:26:39.954Z,5
2018-12-23T22:36:47.218Z,4
2018-12-23T22:46:55.001Z,3
2018-12-23T22:57:01.744Z,4
2018-12-23T23:07:09.060Z,2
2018-12-23T23:17:16.063Z,3
2018-12-23T23:27:22.281Z,5
2018-12-23T23:37:29.206Z,4
2018-12-23T23:47:36.714Z,3
2018-12-23T23:57:43.609Z,3
